sensor_id;sensor_type;location;lat;lon;timestamp;P1;durP1;ratioP1;P2;durP2;ratioP2
13477;SDS011;12598;62.382;17.344;2023-09-30T00:00:40;10.05;;;6.90;;
13477;SDS011;12598;62.382;17.344;2023-09-30T00:01:42;9.93;;;6.45;;
13477;SDS011;12598;62.382;17.344;2023-09-30T00:02:45;9.95;;;6.30;;
13477;SDS011;12598;62.382;17.344;2023-09-30T00:03:47;9.77;;;6.70;;
13477;SDS011;12598;62.382;17.344;2023-09-30T00:04:49;11.23;;;7.05;;
13477;SDS011;12598;62.382;17.344;2023-09-30T00:05:51;10.50;;;6.68;;
13477;SDS011;12598;62.382;17.344;2023-09-30T00:06:53;9.68;;;6.20;;
13477;SDS011;12598;62.382;17.344;2023-09-30T00:07:55;9.02;;;6.03;;
13477;SDS011;12598;62.382;17.344;2023-09-30T00:08:56;10.63;;;6.00;;
13477;SDS011;12598;62.382;17.344;2023-09-30T00:09:59;9.20;;;5.72;;
13477;SDS011;12598;62.382;17.344;2023-09-30T00:11:01;10.73;;;6.97;;
13477;SDS011;12598;62.382;17.344;2023-09-30T00:12:02;10.20;;;6.70;;
13477;SDS011;12598;62.382;17.344;2023-09-30T00:13:04;10.52;;;6.25;;
13477;SDS011;12598;62.382;17.344;2023-09-30T00:14:08;10.65;;;6.35;;
13477;SDS011;12598;62.382;17.344;2023-09-30T00:15:10;9.35;;;6.18;;
13477;SDS011;12598;62.382;17.344;2023-09-30T00:16:11;8.70;;;5.95;;
13477;SDS011;12598;62.382;17.344;2023-09-30T00:17:14;10.13;;;6.43;;
13477;SDS011;12598;62.382;17.344;2023-09-30T00:18:16;9.20;;;6.25;;
13477;SDS011;12598;62.382;17.344;2023-09-30T00:19:18;9.93;;;6.13;;
13477;SDS011;12598;62.382;17.344;2023-09-30T00:20:20;10.30;;;6.00;;
13477;SDS011;12598;62.382;17.344;2023-09-30T00:21:22;11.02;;;6.88;;
13477;SDS011;12598;62.382;17.344;2023-09-30T00:22:24;10.85;;;6.43;;
13477;SDS011;12598;62.382;17.344;2023-09-30T00:23:25;10.88;;;5.95;;
13477;SDS011;12598;62.382;17.344;2023-09-30T00:24:27;10.05;;;6.40;;
13477;SDS011;12598;62.382;17.344;2023-09-30T00:25:29;11.43;;;6.50;;
13477;SDS011;12598;62.382;17.344;2023-09-30T00:26:31;9.27;;;6.05;;
13477;SDS011;12598;62.382;17.344;2023-09-30T00:27:33;9.43;;;6.15;;
13477;SDS011;12598;62.382;17.344;2023-09-30T00:28:35;10.10;;;6.47;;
13477;SDS011;12598;62.382;17.344;2023-09-30T00:29:37;10.27;;;6.20;;
13477;SDS011;12598;62.382;17.344;2023-09-30T00:30:39;10.98;;;6.47;;
13477;SDS011;12598;62.382;17.344;2023-09-30T00:31:41;9.32;;;5.90;;
13477;SDS011;12598;62.382;17.344;2023-09-30T00:32:42;12.70;;;6.72;;
13477;SDS011;12598;62.382;17.344;2023-09-30T00:33:44;11.70;;;6.38;;
13477;SDS011;12598;62.382;17.344;2023-09-30T00:34:46;11.73;;;5.90;;
13477;SDS011;12598;62.382;17.344;2023-09-30T00:35:48;8.82;;;6.20;;
13477;SDS011;12598;62.382;17.344;2023-09-30T00:36:50;11.23;;;6.30;;
13477;SDS011;12598;62.382;17.344;2023-09-30T00:37:52;10.65;;;5.82;;
13477;SDS011;12598;62.382;17.344;2023-09-30T00:38:53;9.32;;;6.40;;
13477;SDS011;12598;62.382;17.344;2023-09-30T00:39:55;9.13;;;6.55;;
13477;SDS011;12598;62.382;17.344;2023-09-30T00:40:57;10.65;;;6.18;;
13477;SDS011;12598;62.382;17.344;2023-09-30T00:41:59;10.15;;;5.75;;
13477;SDS011;12598;62.382;17.344;2023-09-30T00:43:02;8.65;;;6.10;;
13477;SDS011;12598;62.382;17.344;2023-09-30T00:44:04;10.98;;;6.43;;
13477;SDS011;12598;62.382;17.344;2023-09-30T00:45:06;9.93;;;6.07;;
13477;SDS011;12598;62.382;17.344;2023-09-30T00:47:30;10.40;;;6.57;;
13477;SDS011;12598;62.382;17.344;2023-09-30T00:48:33;8.77;;;6.28;;
13477;SDS011;12598;62.382;17.344;2023-09-30T00:49:36;11.07;;;6.80;;
13477;SDS011;12598;62.382;17.344;2023-09-30T00:50:38;11.48;;;6.55;;
13477;SDS011;12598;62.382;17.344;2023-09-30T00:51:41;9.80;;;6.15;;
13477;SDS011;12598;62.382;17.344;2023-09-30T00:52:43;10.63;;;6.57;;
13477;SDS011;12598;62.382;17.344;2023-09-30T00:53:48;10.57;;;6.18;;
13477;SDS011;12598;62.382;17.344;2023-09-30T00:54:53;8.65;;;5.80;;
13477;SDS011;12598;62.382;17.344;2023-09-30T00:55:56;11.27;;;6.80;;
13477;SDS011;12598;62.382;17.344;2023-09-30T00:56:58;13.65;;;6.88;;
13477;SDS011;12598;62.382;17.344;2023-09-30T00:58:02;10.45;;;6.65;;
13477;SDS011;12598;62.382;17.344;2023-09-30T00:59:04;11.30;;;6.38;;
13477;SDS011;12598;62.382;17.344;2023-09-30T01:00:07;11.52;;;6.40;;
13477;SDS011;12598;62.382;17.344;2023-09-30T01:01:14;11.13;;;6.60;;
13477;SDS011;12598;62.382;17.344;2023-09-30T01:02:20;10.27;;;6.38;;
13477;SDS011;12598;62.382;17.344;2023-09-30T01:03:24;12.73;;;7.05;;
13477;SDS011;12598;62.382;17.344;2023-09-30T01:04:27;10.07;;;6.10;;
13477;SDS011;12598;62.382;17.344;2023-09-30T01:05:30;10.85;;;6.57;;
13477;SDS011;12598;62.382;17.344;2023-09-30T01:06:32;9.18;;;6.45;;
13477;SDS011;12598;62.382;17.344;2023-09-30T01:07:34;10.52;;;6.72;;
13477;SDS011;12598;62.382;17.344;2023-09-30T01:08:36;10.55;;;6.28;;
13477;SDS011;12598;62.382;17.344;2023-09-30T01:09:38;10.73;;;6.65;;
13477;SDS011;12598;62.382;17.344;2023-09-30T01:10:40;11.27;;;7.05;;
13477;SDS011;12598;62.382;17.344;2023-09-30T01:11:42;9.60;;;6.22;;
13477;SDS011;12598;62.382;17.344;2023-09-30T01:12:44;9.52;;;5.80;;
13477;SDS011;12598;62.382;17.344;2023-09-30T01:13:46;11.75;;;6.90;;
13477;SDS011;12598;62.382;17.344;2023-09-30T01:14:49;11.20;;;6.53;;
13477;SDS011;12598;62.382;17.344;2023-09-30T01:15:50;13.30;;;7.18;;
13477;SDS011;12598;62.382;17.344;2023-09-30T01:16:53;9.98;;;6.57;;
13477;SDS011;12598;62.382;17.344;2023-09-30T01:17:55;8.55;;;6.22;;
13477;SDS011;12598;62.382;17.344;2023-09-30T01:18:57;10.43;;;6.75;;
13477;SDS011;12598;62.382;17.344;2023-09-30T01:19:59;9.82;;;6.18;;
13477;SDS011;12598;62.382;17.344;2023-09-30T01:21:04;11.85;;;6.80;;
13477;SDS011;12598;62.382;17.344;2023-09-30T01:22:08;11.15;;;6.65;;
13477;SDS011;12598;62.382;17.344;2023-09-30T01:23:11;10.60;;;6.38;;
13477;SDS011;12598;62.382;17.344;2023-09-30T01:24:13;9.48;;;6.63;;
13477;SDS011;12598;62.382;17.344;2023-09-30T01:25:17;11.65;;;7.38;;
13477;SDS011;12598;62.382;17.344;2023-09-30T01:26:20;11.63;;;6.78;;
13477;SDS011;12598;62.382;17.344;2023-09-30T01:27:22;10.77;;;6.95;;
13477;SDS011;12598;62.382;17.344;2023-09-30T01:28:24;11.25;;;6.60;;
13477;SDS011;12598;62.382;17.344;2023-09-30T01:29:28;14.27;;;7.03;;
13477;SDS011;12598;62.382;17.344;2023-09-30T01:30:30;12.32;;;7.68;;
13477;SDS011;12598;62.382;17.344;2023-09-30T01:31:33;12.13;;;6.80;;
13477;SDS011;12598;62.382;17.344;2023-09-30T01:32:36;10.10;;;6.75;;
13477;SDS011;12598;62.382;17.344;2023-09-30T01:33:38;9.02;;;6.18;;
13477;SDS011;12598;62.382;17.344;2023-09-30T01:34:40;9.98;;;6.18;;
13477;SDS011;12598;62.382;17.344;2023-09-30T01:35:44;10.48;;;6.57;;
13477;SDS011;12598;62.382;17.344;2023-09-30T01:36:46;10.88;;;6.82;;
13477;SDS011;12598;62.382;17.344;2023-09-30T01:37:48;10.73;;;6.85;;
13477;SDS011;12598;62.382;17.344;2023-09-30T01:38:50;12.85;;;7.03;;
13477;SDS011;12598;62.382;17.344;2023-09-30T01:39:51;11.27;;;6.90;;
13477;SDS011;12598;62.382;17.344;2023-09-30T01:40:56;10.50;;;6.82;;
13477;SDS011;12598;62.382;17.344;2023-09-30T01:42:01;11.48;;;7.07;;
13477;SDS011;12598;62.382;17.344;2023-09-30T01:43:07;9.70;;;6.50;;
13477;SDS011;12598;62.382;17.344;2023-09-30T01:44:09;10.57;;;6.05;;
13477;SDS011;12598;62.382;17.344;2023-09-30T01:45:11;9.50;;;6.05;;
13477;SDS011;12598;62.382;17.344;2023-09-30T01:46:13;11.05;;;7.13;;
13477;SDS011;12598;62.382;17.344;2023-09-30T01:47:15;8.35;;;6.03;;
13477;SDS011;12598;62.382;17.344;2023-09-30T01:48:16;11.52;;;7.38;;
13477;SDS011;12598;62.382;17.344;2023-09-30T01:49:18;10.55;;;6.57;;
13477;SDS011;12598;62.382;17.344;2023-09-30T01:50:20;10.75;;;7.03;;
13477;SDS011;12598;62.382;17.344;2023-09-30T01:51:22;8.95;;;6.00;;
13477;SDS011;12598;62.382;17.344;2023-09-30T01:52:25;10.32;;;6.88;;
13477;SDS011;12598;62.382;17.344;2023-09-30T01:53:26;10.88;;;7.00;;
13477;SDS011;12598;62.382;17.344;2023-09-30T01:54:28;9.98;;;6.50;;
13477;SDS011;12598;62.382;17.344;2023-09-30T01:55:30;8.77;;;6.53;;
13477;SDS011;12598;62.382;17.344;2023-09-30T01:56:32;9.35;;;5.90;;
13477;SDS011;12598;62.382;17.344;2023-09-30T01:57:34;9.88;;;6.20;;
13477;SDS011;12598;62.382;17.344;2023-09-30T01:58:35;8.82;;;6.45;;
13477;SDS011;12598;62.382;17.344;2023-09-30T01:59:37;12.00;;;6.38;;
13477;SDS011;12598;62.382;17.344;2023-09-30T02:00:39;11.57;;;6.90;;
13477;SDS011;12598;62.382;17.344;2023-09-30T02:01:41;12.32;;;7.10;;
13477;SDS011;12598;62.382;17.344;2023-09-30T02:02:43;9.88;;;6.15;;
13477;SDS011;12598;62.382;17.344;2023-09-30T02:03:45;11.35;;;6.35;;
13477;SDS011;12598;62.382;17.344;2023-09-30T02:04:48;11.55;;;6.78;;
13477;SDS011;12598;62.382;17.344;2023-09-30T02:05:50;10.88;;;7.00;;
13477;SDS011;12598;62.382;17.344;2023-09-30T02:06:52;9.05;;;6.07;;
13477;SDS011;12598;62.382;17.344;2023-09-30T02:07:53;11.27;;;6.55;;
13477;SDS011;12598;62.382;17.344;2023-09-30T02:08:56;10.40;;;6.35;;
13477;SDS011;12598;62.382;17.344;2023-09-30T02:09:58;10.23;;;5.60;;
13477;SDS011;12598;62.382;17.344;2023-09-30T02:11:00;9.80;;;6.18;;
13477;SDS011;12598;62.382;17.344;2023-09-30T02:12:02;10.52;;;6.38;;
13477;SDS011;12598;62.382;17.344;2023-09-30T02:13:04;8.60;;;6.22;;
13477;SDS011;12598;62.382;17.344;2023-09-30T02:14:08;11.10;;;6.88;;
13477;SDS011;12598;62.382;17.344;2023-09-30T02:15:14;9.35;;;6.03;;
13477;SDS011;12598;62.382;17.344;2023-09-30T02:16:16;8.57;;;6.30;;
13477;SDS011;12598;62.382;17.344;2023-09-30T02:17:18;9.32;;;5.50;;
13477;SDS011;12598;62.382;17.344;2023-09-30T02:18:20;9.15;;;6.82;;
13477;SDS011;12598;62.382;17.344;2023-09-30T02:19:22;9.68;;;6.28;;
13477;SDS011;12598;62.382;17.344;2023-09-30T02:20:24;10.07;;;6.40;;
13477;SDS011;12598;62.382;17.344;2023-09-30T02:21:27;8.55;;;5.85;;
13477;SDS011;12598;62.382;17.344;2023-09-30T02:22:30;9.32;;;6.03;;
13477;SDS011;12598;62.382;17.344;2023-09-30T02:23:31;11.45;;;6.53;;
13477;SDS011;12598;62.382;17.344;2023-09-30T02:24:33;8.50;;;6.03;;
13477;SDS011;12598;62.382;17.344;2023-09-30T02:25:35;12.55;;;6.57;;
13477;SDS011;12598;62.382;17.344;2023-09-30T02:26:37;8.40;;;5.75;;
13477;SDS011;12598;62.382;17.344;2023-09-30T02:27:41;9.98;;;6.55;;
13477;SDS011;12598;62.382;17.344;2023-09-30T02:28:43;8.35;;;6.00;;
13477;SDS011;12598;62.382;17.344;2023-09-30T02:29:46;10.30;;;6.47;;
13477;SDS011;12598;62.382;17.344;2023-09-30T02:30:49;7.82;;;6.00;;
13477;SDS011;12598;62.382;17.344;2023-09-30T02:31:51;10.73;;;7.00;;
13477;SDS011;12598;62.382;17.344;2023-09-30T02:32:52;12.20;;;6.47;;
13477;SDS011;12598;62.382;17.344;2023-09-30T02:33:54;10.32;;;6.43;;
13477;SDS011;12598;62.382;17.344;2023-09-30T02:34:57;11.25;;;6.18;;
13477;SDS011;12598;62.382;17.344;2023-09-30T02:35:59;9.88;;;5.95;;
13477;SDS011;12598;62.382;17.344;2023-09-30T02:37:01;10.45;;;6.68;;
13477;SDS011;12598;62.382;17.344;2023-09-30T02:38:03;10.85;;;6.47;;
13477;SDS011;12598;62.382;17.344;2023-09-30T02:39:05;9.15;;;5.90;;
13477;SDS011;12598;62.382;17.344;2023-09-30T02:40:07;10.15;;;6.03;;
13477;SDS011;12598;62.382;17.344;2023-09-30T02:41:13;9.07;;;5.75;;
13477;SDS011;12598;62.382;17.344;2023-09-30T02:42:17;9.85;;;6.10;;
13477;SDS011;12598;62.382;17.344;2023-09-30T02:43:19;9.77;;;5.68;;
13477;SDS011;12598;62.382;17.344;2023-09-30T02:44:22;8.73;;;5.60;;
13477;SDS011;12598;62.382;17.344;2023-09-30T02:45:24;10.43;;;7.07;;
13477;SDS011;12598;62.382;17.344;2023-09-30T02:46:26;9.50;;;6.15;;
13477;SDS011;12598;62.382;17.344;2023-09-30T02:47:29;7.90;;;5.65;;
13477;SDS011;12598;62.382;17.344;2023-09-30T02:48:33;9.27;;;6.07;;
13477;SDS011;12598;62.382;17.344;2023-09-30T02:49:35;10.48;;;6.50;;
13477;SDS011;12598;62.382;17.344;2023-09-30T02:50:38;8.93;;;5.75;;
13477;SDS011;12598;62.382;17.344;2023-09-30T02:51:41;8.38;;;5.68;;
13477;SDS011;12598;62.382;17.344;2023-09-30T02:52:43;9.20;;;6.43;;
13477;SDS011;12598;62.382;17.344;2023-09-30T02:53:45;9.68;;;6.68;;
13477;SDS011;12598;62.382;17.344;2023-09-30T02:54:49;10.20;;;6.22;;
13477;SDS011;12598;62.382;17.344;2023-09-30T02:55:51;10.15;;;6.47;;
13477;SDS011;12598;62.382;17.344;2023-09-30T02:56:58;10.43;;;5.97;;
13477;SDS011;12598;62.382;17.344;2023-09-30T02:58:00;8.23;;;6.05;;
13477;SDS011;12598;62.382;17.344;2023-09-30T02:59:02;9.18;;;6.35;;
13477;SDS011;12598;62.382;17.344;2023-09-30T03:00:04;9.35;;;6.55;;
13477;SDS011;12598;62.382;17.344;2023-09-30T03:01:25;9.63;;;6.35;;
13477;SDS011;12598;62.382;17.344;2023-09-30T03:02:28;11.23;;;7.13;;
13477;SDS011;12598;62.382;17.344;2023-09-30T03:03:31;12.75;;;6.47;;
13477;SDS011;12598;62.382;17.344;2023-09-30T03:04:33;9.98;;;6.28;;
13477;SDS011;12598;62.382;17.344;2023-09-30T03:05:35;11.45;;;6.38;;
13477;SDS011;12598;62.382;17.344;2023-09-30T03:06:38;9.10;;;6.03;;
13477;SDS011;12598;62.382;17.344;2023-09-30T03:07:40;9.35;;;6.00;;
13477;SDS011;12598;62.382;17.344;2023-09-30T03:08:43;11.13;;;6.15;;
13477;SDS011;12598;62.382;17.344;2023-09-30T03:09:44;8.25;;;5.93;;
13477;SDS011;12598;62.382;17.344;2023-09-30T03:10:47;8.57;;;5.85;;
13477;SDS011;12598;62.382;17.344;2023-09-30T03:11:48;9.68;;;6.25;;
13477;SDS011;12598;62.382;17.344;2023-09-30T03:12:51;9.38;;;6.60;;
13477;SDS011;12598;62.382;17.344;2023-09-30T03:13:53;10.30;;;6.00;;
13477;SDS011;12598;62.382;17.344;2023-09-30T03:14:57;10.60;;;6.15;;
13477;SDS011;12598;62.382;17.344;2023-09-30T03:15:59;7.68;;;5.50;;
13477;SDS011;12598;62.382;17.344;2023-09-30T03:17:03;13.02;;;6.55;;
13477;SDS011;12598;62.382;17.344;2023-09-30T03:18:05;10.07;;;5.97;;
13477;SDS011;12598;62.382;17.344;2023-09-30T03:19:07;9.85;;;6.40;;
13477;SDS011;12598;62.382;17.344;2023-09-30T03:20:13;10.95;;;6.30;;
13477;SDS011;12598;62.382;17.344;2023-09-30T03:21:16;8.68;;;5.57;;
13477;SDS011;12598;62.382;17.344;2023-09-30T03:22:18;8.52;;;6.22;;
13477;SDS011;12598;62.382;17.344;2023-09-30T03:23:20;9.50;;;6.32;;
13477;SDS011;12598;62.382;17.344;2023-09-30T03:24:22;8.68;;;5.80;;
13477;SDS011;12598;62.382;17.344;2023-09-30T03:25:24;11.02;;;6.00;;
13477;SDS011;12598;62.382;17.344;2023-09-30T03:26:28;10.45;;;6.05;;
13477;SDS011;12598;62.382;17.344;2023-09-30T03:27:31;9.43;;;6.38;;
13477;SDS011;12598;62.382;17.344;2023-09-30T03:28:34;9.23;;;6.63;;
13477;SDS011;12598;62.382;17.344;2023-09-30T03:29:36;9.13;;;5.70;;
13477;SDS011;12598;62.382;17.344;2023-09-30T03:30:40;10.63;;;6.10;;
13477;SDS011;12598;62.382;17.344;2023-09-30T03:31:42;9.55;;;6.18;;
13477;SDS011;12598;62.382;17.344;2023-09-30T03:32:44;10.10;;;6.18;;
13477;SDS011;12598;62.382;17.344;2023-09-30T03:33:46;8.25;;;5.40;;
13477;SDS011;12598;62.382;17.344;2023-09-30T03:34:49;8.35;;;6.05;;
13477;SDS011;12598;62.382;17.344;2023-09-30T03:35:51;10.27;;;5.90;;
13477;SDS011;12598;62.382;17.344;2023-09-30T03:36:53;9.57;;;6.60;;
13477;SDS011;12598;62.382;17.344;2023-09-30T03:37:56;10.23;;;6.50;;
13477;SDS011;12598;62.382;17.344;2023-09-30T03:38:59;8.65;;;6.13;;
13477;SDS011;12598;62.382;17.344;2023-09-30T03:40:07;8.73;;;5.85;;
13477;SDS011;12598;62.382;17.344;2023-09-30T03:41:16;8.27;;;5.93;;
13477;SDS011;12598;62.382;17.344;2023-09-30T03:42:17;12.48;;;6.22;;
13477;SDS011;12598;62.382;17.344;2023-09-30T03:43:19;7.70;;;5.47;;
13477;SDS011;12598;62.382;17.344;2023-09-30T03:44:22;9.32;;;6.15;;
13477;SDS011;12598;62.382;17.344;2023-09-30T03:45:27;9.02;;;5.93;;
13477;SDS011;12598;62.382;17.344;2023-09-30T03:46:29;8.52;;;5.50;;
13477;SDS011;12598;62.382;17.344;2023-09-30T03:47:31;10.43;;;6.45;;
13477;SDS011;12598;62.382;17.344;2023-09-30T03:48:33;9.50;;;5.85;;
13477;SDS011;12598;62.382;17.344;2023-09-30T03:49:41;8.50;;;6.00;;
13477;SDS011;12598;62.382;17.344;2023-09-30T03:50:44;8.38;;;5.95;;
13477;SDS011;12598;62.382;17.344;2023-09-30T03:51:46;9.05;;;5.80;;
13477;SDS011;12598;62.382;17.344;2023-09-30T03:52:48;8.23;;;5.82;;
13477;SDS011;12598;62.382;17.344;2023-09-30T03:53:51;8.43;;;5.90;;
13477;SDS011;12598;62.382;17.344;2023-09-30T03:54:53;11.20;;;6.00;;
13477;SDS011;12598;62.382;17.344;2023-09-30T03:55:55;8.80;;;6.07;;
13477;SDS011;12598;62.382;17.344;2023-09-30T03:56:57;8.57;;;6.28;;
13477;SDS011;12598;62.382;17.344;2023-09-30T03:58:01;9.80;;;5.97;;
13477;SDS011;12598;62.382;17.344;2023-09-30T03:59:05;9.93;;;5.85;;
13477;SDS011;12598;62.382;17.344;2023-09-30T04:00:07;8.18;;;5.55;;
13477;SDS011;12598;62.382;17.344;2023-09-30T04:01:13;8.90;;;6.45;;
13477;SDS011;12598;62.382;17.344;2023-09-30T04:02:21;8.93;;;6.05;;
13477;SDS011;12598;62.382;17.344;2023-09-30T04:03:23;8.73;;;5.63;;
13477;SDS011;12598;62.382;17.344;2023-09-30T04:04:25;8.82;;;5.75;;
13477;SDS011;12598;62.382;17.344;2023-09-30T04:05:27;9.60;;;5.88;;
13477;SDS011;12598;62.382;17.344;2023-09-30T04:06:38;8.55;;;5.70;;
13477;SDS011;12598;62.382;17.344;2023-09-30T04:07:40;7.28;;;5.22;;
13477;SDS011;12598;62.382;17.344;2023-09-30T04:08:43;8.98;;;6.03;;
13477;SDS011;12598;62.382;17.344;2023-09-30T04:09:45;9.40;;;6.40;;
13477;SDS011;12598;62.382;17.344;2023-09-30T04:10:48;8.48;;;5.75;;
13477;SDS011;12598;62.382;17.344;2023-09-30T04:11:50;8.10;;;5.35;;
13477;SDS011;12598;62.382;17.344;2023-09-30T04:12:52;8.70;;;5.97;;
13477;SDS011;12598;62.382;17.344;2023-09-30T04:13:54;10.52;;;5.72;;
13477;SDS011;12598;62.382;17.344;2023-09-30T04:14:57;13.15;;;6.15;;
13477;SDS011;12598;62.382;17.344;2023-09-30T04:15:59;10.63;;;6.60;;
13477;SDS011;12598;62.382;17.344;2023-09-30T04:17:01;8.68;;;5.72;;
13477;SDS011;12598;62.382;17.344;2023-09-30T04:18:04;8.75;;;5.78;;
13477;SDS011;12598;62.382;17.344;2023-09-30T04:19:06;10.85;;;6.07;;
13477;SDS011;12598;62.382;17.344;2023-09-30T04:20:11;7.72;;;5.63;;
13477;SDS011;12598;62.382;17.344;2023-09-30T04:21:18;8.00;;;5.20;;
13477;SDS011;12598;62.382;17.344;2023-09-30T04:22:20;8.13;;;5.60;;
13477;SDS011;12598;62.382;17.344;2023-09-30T04:23:26;9.48;;;5.53;;
13477;SDS011;12598;62.382;17.344;2023-09-30T04:24:29;7.68;;;5.70;;
13477;SDS011;12598;62.382;17.344;2023-09-30T04:25:31;11.55;;;6.30;;
13477;SDS011;12598;62.382;17.344;2023-09-30T04:26:32;10.25;;;6.18;;
13477;SDS011;12598;62.382;17.344;2023-09-30T04:27:34;10.85;;;6.30;;
13477;SDS011;12598;62.382;17.344;2023-09-30T04:28:37;8.55;;;5.88;;
13477;SDS011;12598;62.382;17.344;2023-09-30T04:29:38;8.95;;;6.45;;
13477;SDS011;12598;62.382;17.344;2023-09-30T04:30:40;8.48;;;5.47;;
13477;SDS011;12598;62.382;17.344;2023-09-30T04:31:43;9.05;;;6.47;;
13477;SDS011;12598;62.382;17.344;2023-09-30T04:32:45;9.45;;;6.13;;
13477;SDS011;12598;62.382;17.344;2023-09-30T04:33:48;8.30;;;5.50;;
13477;SDS011;12598;62.382;17.344;2023-09-30T04:34:50;8.90;;;5.75;;
13477;SDS011;12598;62.382;17.344;2023-09-30T04:35:52;6.95;;;5.35;;
13477;SDS011;12598;62.382;17.344;2023-09-30T04:36:54;9.68;;;5.65;;
13477;SDS011;12598;62.382;17.344;2023-09-30T04:37:56;8.10;;;5.80;;
13477;SDS011;12598;62.382;17.344;2023-09-30T04:39:02;9.70;;;5.68;;
13477;SDS011;12598;62.382;17.344;2023-09-30T04:40:05;8.23;;;5.63;;
13477;SDS011;12598;62.382;17.344;2023-09-30T04:41:17;8.48;;;5.82;;
13477;SDS011;12598;62.382;17.344;2023-09-30T04:42:20;9.23;;;5.60;;
13477;SDS011;12598;62.382;17.344;2023-09-30T04:43:22;10.25;;;6.10;;
13477;SDS011;12598;62.382;17.344;2023-09-30T04:44:24;10.02;;;5.82;;
13477;SDS011;12598;62.382;17.344;2023-09-30T04:45:29;10.75;;;5.97;;
13477;SDS011;12598;62.382;17.344;2023-09-30T04:46:31;9.93;;;6.00;;
13477;SDS011;12598;62.382;17.344;2023-09-30T04:47:33;9.93;;;6.05;;
13477;SDS011;12598;62.382;17.344;2023-09-30T04:48:35;8.38;;;5.35;;
13477;SDS011;12598;62.382;17.344;2023-09-30T04:49:37;6.68;;;4.88;;
13477;SDS011;12598;62.382;17.344;2023-09-30T04:50:39;8.48;;;5.57;;
13477;SDS011;12598;62.382;17.344;2023-09-30T04:51:41;8.32;;;5.07;;
13477;SDS011;12598;62.382;17.344;2023-09-30T04:52:43;9.82;;;5.90;;
13477;SDS011;12598;62.382;17.344;2023-09-30T04:53:47;9.27;;;5.75;;
13477;SDS011;12598;62.382;17.344;2023-09-30T04:54:49;9.05;;;6.40;;
13477;SDS011;12598;62.382;17.344;2023-09-30T04:55:51;8.98;;;5.53;;
13477;SDS011;12598;62.382;17.344;2023-09-30T04:56:52;7.40;;;5.38;;
13477;SDS011;12598;62.382;17.344;2023-09-30T04:57:54;7.85;;;5.60;;
13477;SDS011;12598;62.382;17.344;2023-09-30T04:58:56;8.25;;;5.43;;
13477;SDS011;12598;62.382;17.344;2023-09-30T04:59:58;7.13;;;5.25;;
13477;SDS011;12598;62.382;17.344;2023-09-30T05:01:00;8.32;;;5.40;;
13477;SDS011;12598;62.382;17.344;2023-09-30T05:02:02;9.18;;;5.63;;
13477;SDS011;12598;62.382;17.344;2023-09-30T05:03:05;7.60;;;5.22;;
13477;SDS011;12598;62.382;17.344;2023-09-30T05:04:07;7.50;;;5.50;;
13477;SDS011;12598;62.382;17.344;2023-09-30T05:05:09;9.18;;;5.88;;
13477;SDS011;12598;62.382;17.344;2023-09-30T05:06:11;10.10;;;6.25;;
13477;SDS011;12598;62.382;17.344;2023-09-30T05:07:13;9.35;;;5.57;;
13477;SDS011;12598;62.382;17.344;2023-09-30T05:08:15;9.40;;;6.40;;
13477;SDS011;12598;62.382;17.344;2023-09-30T05:09:17;7.88;;;5.28;;
13477;SDS011;12598;62.382;17.344;2023-09-30T05:10:19;7.35;;;5.13;;
13477;SDS011;12598;62.382;17.344;2023-09-30T05:11:21;7.50;;;5.40;;
13477;SDS011;12598;62.382;17.344;2023-09-30T05:12:23;9.32;;;5.93;;
13477;SDS011;12598;62.382;17.344;2023-09-30T05:13:25;8.77;;;5.50;;
13477;SDS011;12598;62.382;17.344;2023-09-30T05:14:27;7.97;;;5.20;;
13477;SDS011;12598;62.382;17.344;2023-09-30T05:15:30;8.77;;;5.45;;
13477;SDS011;12598;62.382;17.344;2023-09-30T05:16:34;8.90;;;5.57;;
13477;SDS011;12598;62.382;17.344;2023-09-30T05:17:36;9.60;;;5.43;;
13477;SDS011;12598;62.382;17.344;2023-09-30T05:18:38;8.75;;;5.43;;
13477;SDS011;12598;62.382;17.344;2023-09-30T05:19:40;11.85;;;5.53;;
13477;SDS011;12598;62.382;17.344;2023-09-30T05:20:42;7.20;;;5.38;;
13477;SDS011;12598;62.382;17.344;2023-09-30T05:21:45;8.50;;;6.00;;
13477;SDS011;12598;62.382;17.344;2023-09-30T05:22:47;8.93;;;5.30;;
13477;SDS011;12598;62.382;17.344;2023-09-30T05:23:50;6.45;;;4.93;;
13477;SDS011;12598;62.382;17.344;2023-09-30T05:24:52;8.73;;;5.85;;
13477;SDS011;12598;62.382;17.344;2023-09-30T05:25:54;7.90;;;5.28;;
13477;SDS011;12598;62.382;17.344;2023-09-30T05:26:56;7.38;;;5.40;;
13477;SDS011;12598;62.382;17.344;2023-09-30T05:27:58;8.52;;;5.30;;
13477;SDS011;12598;62.382;17.344;2023-09-30T05:29:01;7.80;;;4.75;;
13477;SDS011;12598;62.382;17.344;2023-09-30T05:30:04;9.68;;;5.53;;
13477;SDS011;12598;62.382;17.344;2023-09-30T05:31:08;7.32;;;4.90;;
13477;SDS011;12598;62.382;17.344;2023-09-30T05:32:10;10.43;;;6.13;;
13477;SDS011;12598;62.382;17.344;2023-09-30T05:33:12;8.35;;;5.30;;
13477;SDS011;12598;62.382;17.344;2023-09-30T05:34:16;9.07;;;6.03;;
13477;SDS011;12598;62.382;17.344;2023-09-30T05:35:19;8.38;;;5.40;;
13477;SDS011;12598;62.382;17.344;2023-09-30T05:36:24;9.30;;;5.35;;
13477;SDS011;12598;62.382;17.344;2023-09-30T05:37:26;6.93;;;4.65;;
13477;SDS011;12598;62.382;17.344;2023-09-30T05:38:28;8.00;;;5.28;;
13477;SDS011;12598;62.382;17.344;2023-09-30T05:39:32;5.90;;;4.82;;
13477;SDS011;12598;62.382;17.344;2023-09-30T05:40:34;8.65;;;5.68;;
13477;SDS011;12598;62.382;17.344;2023-09-30T05:41:36;7.95;;;5.40;;
13477;SDS011;12598;62.382;17.344;2023-09-30T05:42:38;8.40;;;4.97;;
13477;SDS011;12598;62.382;17.344;2023-09-30T05:43:40;8.77;;;5.80;;
13477;SDS011;12598;62.382;17.344;2023-09-30T05:44:44;6.85;;;5.28;;
13477;SDS011;12598;62.382;17.344;2023-09-30T05:45:47;7.38;;;5.20;;
13477;SDS011;12598;62.382;17.344;2023-09-30T05:46:59;7.28;;;5.00;;
13477;SDS011;12598;62.382;17.344;2023-09-30T05:48:01;8.15;;;5.38;;
13477;SDS011;12598;62.382;17.344;2023-09-30T05:49:07;8.18;;;5.57;;
13477;SDS011;12598;62.382;17.344;2023-09-30T05:50:14;7.47;;;4.93;;
13477;SDS011;12598;62.382;17.344;2023-09-30T05:51:17;8.23;;;5.47;;
13477;SDS011;12598;62.382;17.344;2023-09-30T05:52:20;8.85;;;5.03;;
13477;SDS011;12598;62.382;17.344;2023-09-30T05:53:22;8.23;;;5.10;;
13477;SDS011;12598;62.382;17.344;2023-09-30T05:54:24;7.28;;;5.05;;
13477;SDS011;12598;62.382;17.344;2023-09-30T05:55:26;8.40;;;5.00;;
13477;SDS011;12598;62.382;17.344;2023-09-30T05:56:28;7.13;;;5.20;;
13477;SDS011;12598;62.382;17.344;2023-09-30T05:57:30;6.72;;;4.72;;
13477;SDS011;12598;62.382;17.344;2023-09-30T05:58:31;8.30;;;4.68;;
13477;SDS011;12598;62.382;17.344;2023-09-30T05:59:33;9.07;;;4.93;;
13477;SDS011;12598;62.382;17.344;2023-09-30T06:00:35;6.55;;;5.00;;
13477;SDS011;12598;62.382;17.344;2023-09-30T06:01:37;6.75;;;4.72;;
13477;SDS011;12598;62.382;17.344;2023-09-30T06:02:41;7.80;;;4.72;;
13477;SDS011;12598;62.382;17.344;2023-09-30T06:03:43;6.00;;;4.55;;
13477;SDS011;12598;62.382;17.344;2023-09-30T06:04:48;9.07;;;5.00;;
13477;SDS011;12598;62.382;17.344;2023-09-30T06:05:52;5.63;;;4.15;;
13477;SDS011;12598;62.382;17.344;2023-09-30T06:06:54;8.35;;;5.18;;
13477;SDS011;12598;62.382;17.344;2023-09-30T06:07:57;7.55;;;4.88;;
13477;SDS011;12598;62.382;17.344;2023-09-30T06:09:00;6.38;;;5.00;;
13477;SDS011;12598;62.382;17.344;2023-09-30T06:10:01;7.28;;;4.90;;
13477;SDS011;12598;62.382;17.344;2023-09-30T06:11:04;5.35;;;3.90;;
13477;SDS011;12598;62.382;17.344;2023-09-30T06:12:06;6.10;;;4.72;;